Time;durP1;ratioP1;P1;durP2;ratioP2;P2;SDS_P1;SDS_P2;PMS_P1;PMS_P2;Temp;Humidity;BMP_temperature;BMP_pressure;BME280_temperature;BME280_humidity;BME280_pressure;Samples;Min_cycle;Max_cycle;Signal;HPM_P1;HPM_P2
2022/06/07 00:00:39;;;;;;;3.75;1.60;;;;;;;;;;4989537;28;20030;-64
2022/06/07 00:03:05;;;;;;;2.72;1.38;;;;;;;;;;4982112;28;20023;-64
2022/06/07 00:05:31;;;;;;;4.43;1.80;;;;;;;;;;4985689;28;20028;-64
2022/06/07 00:07:57;;;;;;;3.10;1.40;;;;;;;;;;4984597;28;20042;-64
2022/06/07 00:10:23;;;;;;;2.42;1.50;;;;;;;;;;4984409;28;20096;-64
2022/06/07 00:12:49;;;;;;;1.70;1.60;;;;;;;;;;4984916;28;20062;-64
2022/06/07 00:15:15;;;;;;;2.03;1.40;;;;;;;;;;4987035;28;20022;-64
2022/06/07 00:17:41;;;;;;;1.20;1.20;;;;;;;;;;4983694;28;20395;-64
2022/06/07 00:20:08;;;;;;;1.75;1.35;;;;;;;;;;4984419;28;23089;-64
2022/06/07 00:22:34;;;;;;;3.03;1.65;;;;;;;;;;4982142;28;20537;-64
2022/06/07 00:25:01;;;;;;;1.88;1.38;;;;;;;;;;4987095;28;20030;-64
2022/06/07 00:27:28;;;;;;;1.50;1.40;;;;;;;;;;4983652;28;20113;-64
2022/06/07 00:29:54;;;;;;;4.90;1.80;;;;;;;;;;4984871;28;20125;-64
2022/06/07 00:32:21;;;;;;;2.25;1.75;;;;;;;;;;4986699;28;20541;-63
2022/06/07 00:34:47;;;;;;;2.30;1.60;;;;;;;;;;4986012;28;20042;-64
2022/06/07 00:37:14;;;;;;;2.70;1.38;;;;;;;;;;4983797;28;20070;-64
2022/06/07 00:39:39;;;;;;;1.50;1.40;;;;;;;;;;4985011;28;20026;-63
2022/06/07 00:42:05;;;;;;;1.50;1.40;;;;;;;;;;4983138;28;20597;-64
2022/06/07 00:44:33;;;;;;;1.60;1.50;;;;;;;;;;4980752;28;20431;-64
2022/06/07 00:47:08;;;;;;;1.58;1.48;;;;;;;;;;4982007;28;20109;-64
2022/06/07 00:49:47;;;;;;;4.88;1.50;;;;;;;;;;4984021;28;20109;-64
2022/06/07 00:52:15;;;;;;;2.25;1.38;;;;;;;;;;4981114;28;20102;-64
2022/06/07 00:54:41;;;;;;;1.48;1.38;;;;;;;;;;4983780;28;20073;-64
2022/06/07 00:57:07;;;;;;;2.80;1.60;;;;;;;;;;4984925;28;20026;-64
2022/06/07 00:59:34;;;;;;;3.55;1.80;;;;;;;;;;4984125;28;20026;-64
2022/06/07 01:01:59;;;;;;;3.35;1.58;;;;;;;;;;4983764;28;20034;-64
2022/06/07 01:04:27;;;;;;;2.97;1.48;;;;;;;;;;4984129;28;20034;-64
2022/06/07 01:12:22;;;;;;;5.80;1.85;;;;;;;;;;4981580;28;20045;-64
2022/06/07 01:14:48;;;;;;;2.45;1.88;;;;;;;;;;4980004;28;20039;-64
2022/06/07 01:17:14;;;;;;;2.95;1.50;;;;;;;;;;4979810;28;20034;-64
2022/06/07 01:19:39;;;;;;;1.77;1.67;;;;;;;;;;4982453;28;20683;-64
2022/06/07 01:22:05;;;;;;;2.03;1.70;;;;;;;;;;4980535;28;20026;-64
2022/06/07 01:24:31;;;;;;;1.70;1.60;;;;;;;;;;4985470;28;20044;-64
2022/06/07 01:26:57;;;;;;;4.53;1.52;;;;;;;;;;4984126;28;20065;-64
2022/06/07 01:29:23;;;;;;;1.95;1.75;;;;;;;;;;4982403;28;20038;-64
2022/06/07 01:31:49;;;;;;;1.60;1.50;;;;;;;;;;4982324;28;20038;-64
2022/06/07 01:34:15;;;;;;;2.13;1.55;;;;;;;;;;4981457;28;20095;-64
2022/06/07 01:36:41;;;;;;;3.25;1.40;;;;;;;;;;4983215;28;20601;-64
2022/06/07 01:41:54;;;;;;;3.28;1.55;;;;;;;;;;4982360;28;20054;-64
2022/06/07 01:44:21;;;;;;;5.22;1.60;;;;;;;;;;4983507;28;20038;-64
2022/06/07 01:46:47;;;;;;;1.90;1.63;;;;;;;;;;4984353;28;20121;-64
2022/06/07 01:49:12;;;;;;;5.00;1.95;;;;;;;;;;4981659;28;20155;-64
2022/06/07 01:51:38;;;;;;;5.05;1.83;;;;;;;;;;4984883;28;20029;-64
2022/06/07 01:54:04;;;;;;;2.65;1.45;;;;;;;;;;4981276;28;20480;-67
2022/06/07 01:56:30;;;;;;;3.08;1.60;;;;;;;;;;4984336;28;20022;-67
2022/06/07 01:58:57;;;;;;;2.15;1.40;;;;;;;;;;4985202;28;20034;-64
2022/06/07 02:01:23;;;;;;;1.77;1.60;;;;;;;;;;4983148;28;20156;-64
2022/06/07 02:03:49;;;;;;;6.90;2.20;;;;;;;;;;4980695;28;20030;-64
2022/06/07 02:06:15;;;;;;;6.90;1.80;;;;;;;;;;4982382;28;20034;-64
2022/06/07 02:08:41;;;;;;;4.13;1.63;;;;;;;;;;4984592;28;20558;-64
2022/06/07 02:11:11;;;;;;;3.33;1.35;;;;;;;;;;4983432;28;20030;-64
2022/06/07 02:13:37;;;;;;;1.65;1.55;;;;;;;;;;4981027;28;20476;-63
2022/06/07 02:16:04;;;;;;;1.95;1.85;;;;;;;;;;4980221;28;20399;-64
2022/06/07 02:18:30;;;;;;;3.95;1.60;;;;;;;;;;4986675;28;20026;-64
2022/06/07 02:20:57;;;;;;;2.15;1.65;;;;;;;;;;4981796;28;20034;-64
2022/06/07 02:23:24;;;;;;;1.58;1.48;;;;;;;;;;4988697;28;20034;-63
2022/06/07 02:25:52;;;;;;;3.45;1.70;;;;;;;;;;4983278;28;20050;-67
2022/06/07 02:28:20;;;;;;;2.45;1.50;;;;;;;;;;4983773;28;20046;-64
2022/06/07 02:30:46;;;;;;;7.15;1.92;;;;;;;;;;4987930;28;20117;-64
2022/06/07 02:33:13;;;;;;;1.88;1.77;;;;;;;;;;4988170;28;20035;-64
2022/06/07 02:35:40;;;;;;;2.67;1.38;;;;;;;;;;4985345;28;20022;-64
2022/06/07 02:38:07;;;;;;;2.78;1.73;;;;;;;;;;4986174;28;20509;-64
2022/06/07 02:40:34;;;;;;;2.35;1.80;;;;;;;;;;4988823;28;20038;-64
2022/06/07 02:43:01;;;;;;;2.25;1.70;;;;;;;;;;4985778;28;20037;-64
2022/06/07 02:45:27;;;;;;;2.40;1.80;;;;;;;;;;4985881;28;20038;-64
2022/06/07 02:47:53;;;;;;;4.10;1.70;;;;;;;;;;4987343;28;20023;-64
2022/06/07 02:50:19;;;;;;;1.83;1.50;;;;;;;;;;4987916;28;20031;-64
2022/06/07 02:52:45;;;;;;;2.80;1.77;;;;;;;;;;4989142;28;20033;-64
2022/06/07 02:55:11;;;;;;;2.05;1.80;;;;;;;;;;4987384;28;20109;-64
2022/06/07 02:57:37;;;;;;;3.03;1.63;;;;;;;;;;4990526;28;20124;-64
2022/06/07 03:00:05;;;;;;;2.20;1.90;;;;;;;;;;4984065;28;20154;-64
2022/06/07 03:02:31;;;;;;;2.42;1.80;;;;;;;;;;4987381;28;20041;-64
2022/06/07 03:04:57;;;;;;;1.67;1.58;;;;;;;;;;4983972;28;20038;-63
2022/06/07 03:07:23;;;;;;;2.35;2.00;;;;;;;;;;4983637;28;20100;-65
2022/06/07 03:09:48;;;;;;;3.95;1.92;;;;;;;;;;4988724;28;20027;-67
2022/06/07 03:12:14;;;;;;;2.90;1.88;;;;;;;;;;4988182;28;20034;-67
2022/06/07 03:14:40;;;;;;;2.47;1.80;;;;;;;;;;4984930;28;20471;-67
2022/06/07 03:17:06;;;;;;;2.70;1.95;;;;;;;;;;4986657;28;20038;-67
2022/06/07 03:19:32;;;;;;;8.00;1.98;;;;;;;;;;4987755;28;20039;-67
2022/06/07 03:21:58;;;;;;;1.83;1.73;;;;;;;;;;4984085;28;20026;-67
2022/06/07 03:24:26;;;;;;;2.20;1.85;;;;;;;;;;4986691;28;20038;-67
2022/06/07 03:26:53;;;;;;;2.53;2.08;;;;;;;;;;4985907;28;20049;-66
2022/06/07 03:29:19;;;;;;;5.05;1.95;;;;;;;;;;4981866;28;20050;-66
2022/06/07 03:31:45;;;;;;;2.50;2.00;;;;;;;;;;4985936;28;20479;-67
2022/06/07 03:34:10;;;;;;;4.65;1.88;;;;;;;;;;4980951;28;20155;-67
2022/06/07 03:36:37;;;;;;;2.20;2.03;;;;;;;;;;4989715;28;20038;-67
2022/06/07 03:39:07;;;;;;;2.42;2.22;;;;;;;;;;4984001;28;20125;-67
2022/06/07 03:41:33;;;;;;;3.22;2.28;;;;;;;;;;4986357;28;20042;-67
2022/06/07 03:43:59;;;;;;;2.63;2.10;;;;;;;;;;4984709;28;20031;-67
2022/06/07 03:46:28;;;;;;;2.63;2.30;;;;;;;;;;4985253;28;20034;-67
2022/06/07 03:48:55;;;;;;;2.28;2.03;;;;;;;;;;4985593;28;20023;-67
2022/06/07 03:51:23;;;;;;;4.40;2.00;;;;;;;;;;4986424;28;20028;-67
2022/06/07 03:53:49;;;;;;;2.40;2.20;;;;;;;;;;4983001;28;20036;-64
2022/06/07 03:56:15;;;;;;;5.95;2.38;;;;;;;;;;4987212;28;20114;-64
2022/06/07 03:58:42;;;;;;;2.30;2.10;;;;;;;;;;4988271;28;20038;-64
2022/06/07 04:01:15;;;;;;;7.28;2.08;;;;;;;;;;4980711;28;20530;-64
2022/06/07 04:03:45;;;;;;;5.60;2.10;;;;;;;;;;4985110;28;20046;-64
2022/06/07 04:06:39;;;;;;;6.22;2.15;;;;;;;;;;4986150;28;20031;-67
2022/06/07 04:09:05;;;;;;;2.63;2.33;;;;;;;;;;4986811;28;21539;-66
2022/06/07 04:11:30;;;;;;;3.72;2.40;;;;;;;;;;4985398;28;20034;-67
2022/06/07 04:13:58;;;;;;;6.78;2.50;;;;;;;;;;4984916;28;20582;-64
2022/06/07 04:16:27;;;;;;;5.35;2.78;;;;;;;;;;4981220;28;20027;-64
2022/06/07 04:18:56;;;;;;;3.90;2.55;;;;;;;;;;4984692;28;20161;-67
2022/06/07 04:21:23;;;;;;;3.10;2.35;;;;;;;;;;4983925;28;20072;-65
2022/06/07 04:23:49;;;;;;;7.55;2.72;;;;;;;;;;4981645;28;20079;-65
2022/06/07 04:26:19;;;;;;;2.60;2.40;;;;;;;;;;4981178;28;20046;-67
2022/06/07 04:28:45;;;;;;;5.72;2.45;;;;;;;;;;4983927;28;20053;-65
2022/06/07 04:31:17;;;;;;;6.57;2.60;;;;;;;;;;4985317;28;20079;-67
2022/06/07 04:33:45;;;;;;;4.63;2.88;;;;;;;;;;4986590;28;20046;-67
2022/06/07 04:36:20;;;;;;;10.15;3.10;;;;;;;;;;4986695;28;20049;-67
2022/06/07 04:38:47;;;;;;;3.97;3.25;;;;;;;;;;4980238;28;20076;-67
2022/06/07 04:41:15;;;;;;;7.47;2.78;;;;;;;;;;4984337;28;20022;-67
2022/06/07 04:43:41;;;;;;;7.97;2.50;;;;;;;;;;4983823;28;20034;-64
2022/06/07 04:46:14;;;;;;;5.90;2.60;;;;;;;;;;4983812;28;20100;-67
2022/06/07 04:48:41;;;;;;;6.57;2.92;;;;;;;;;;4985677;28;20034;-67
2022/06/07 04:51:13;;;;;;;4.18;2.72;;;;;;;;;;4983427;28;20030;-67
2022/06/07 04:53:38;;;;;;;;;;;;;;;;;;4983327;28;20072;-66
2022/06/07 04:56:13;;;;;;;15.73;3.22;;;;;;;;;;4985573;28;19930;-67
2022/06/07 04:58:38;;;;;;;6.90;3.10;;;;;;;;;;4978720;28;20049;-65
2022/06/07 05:01:09;;;;;;;7.03;3.15;;;;;;;;;;4986228;28;20033;-67
2022/06/07 05:03:34;;;;;;;8.05;2.70;;;;;;;;;;4984207;28;20372;-67
2022/06/07 05:06:00;;;;;;;2.92;2.70;;;;;;;;;;4984589;28;20049;-67
2022/06/07 05:08:26;;;;;;;3.25;2.70;;;;;;;;;;4982950;28;20115;-67
2022/06/07 05:10:53;;;;;;;4.45;2.90;;;;;;;;;;4987109;28;20042;-67
2022/06/07 05:13:19;;;;;;;4.15;2.58;;;;;;;;;;4980398;28;20026;-67
2022/06/07 05:15:53;;;;;;;5.00;3.13;;;;;;;;;;4986860;28;20357;-64
2022/06/07 05:18:19;;;;;;;4.05;3.00;;;;;;;;;;4985146;28;20034;-65
2022/06/07 05:20:45;;;;;;;7.32;3.40;;;;;;;;;;4983671;28;20042;-65
2022/06/07 05:23:11;;;;;;;6.28;3.15;;;;;;;;;;4985222;28;20050;-65
2022/06/07 05:25:36;;;;;;;3.60;3.30;;;;;;;;;;4980853;28;20054;-65
2022/06/07 05:28:03;;;;;;;6.30;2.92;;;;;;;;;;4981463;28;20062;-65
2022/06/07 05:30:28;;;;;;;3.58;3.08;;;;;;;;;;4980781;28;20109;-65
2022/06/07 05:32:54;;;;;;;5.32;2.80;;;;;;;;;;4974043;28;20916;-67
2022/06/07 05:35:20;;;;;;;6.10;3.00;;;;;;;;;;4974250;28;20484;-67
2022/06/07 05:37:45;;;;;;;3.78;3.08;;;;;;;;;;4980356;28;20097;-67
2022/06/07 05:40:11;;;;;;;3.13;2.72;;;;;;;;;;4980570;28;20667;-67
2022/06/07 05:42:37;;;;;;;6.30;3.17;;;;;;;;;;4983294;28;20041;-67
2022/06/07 05:45:03;;;;;;;3.92;2.90;;;;;;;;;;4982360;28;20038;-68
2022/06/07 05:47:30;;;;;;;8.85;3.25;;;;;;;;;;4980290;28;20483;-68
2022/06/07 05:49:55;;;;;;;4.30;3.10;;;;;;;;;;4983001;28;20117;-67
2022/06/07 05:52:21;;;;;;;3.53;2.83;;;;;;;;;;4980561;28;20113;-65
2022/06/07 05:54:47;;;;;;;3.65;3.05;;;;;;;;;;4984686;28;20045;-65
2022/06/07 05:57:13;;;;;;;6.05;3.17;;;;;;;;;;4981063;28;20427;-67
2022/06/07 05:59:39;;;;;;;8.25;3.47;;;;;;;;;;4979199;28;20034;-64
2022/06/07 06:02:04;;;;;;;8.68;3.70;;;;;;;;;;4982798;28;20034;-65
2022/06/07 06:04:30;;;;;;;4.10;3.47;;;;;;;;;;4980652;28;20057;-65
2022/06/07 06:06:57;;;;;;;5.00;3.60;;;;;;;;;;4984848;28;20061;-67
2022/06/07 06:12:07;;;;;;;3.10;2.85;;;;;;;;;;4980058;28;20113;-67
2022/06/07 06:14:33;;;;;;;6.65;3.22;;;;;;;;;;4984699;28;20113;-64
2022/06/07 06:16:59;;;;;;;7.45;3.20;;;;;;;;;;4979622;28;20027;-65
2022/06/07 06:19:24;;;;;;;3.85;2.75;;;;;;;;;;4984245;28;20037;-67
2022/06/07 06:21:50;;;;;;;9.05;3.00;;;;;;;;;;4982197;28;20684;-65
2022/06/07 06:24:17;;;;;;;7.28;2.88;;;;;;;;;;4980981;28;20031;-65
2022/06/07 06:26:43;;;;;;;5.65;3.10;;;;;;;;;;4983760;28;20119;-65
2022/06/07 06:29:10;;;;;;;3.70;2.40;;;;;;;;;;4980644;28;20112;-64
2022/06/07 06:31:38;;;;;;;4.95;2.50;;;;;;;;;;4981174;28;20109;-64
2022/06/07 06:34:04;;;;;;;2.50;2.25;;;;;;;;;;4982715;28;20038;-65
2022/06/07 06:36:30;;;;;;;2.88;2.58;;;;;;;;;;4985670;28;20053;-64
2022/06/07 06:38:57;;;;;;;3.85;2.33;;;;;;;;;;4981030;28;20125;-65
2022/06/07 06:41:25;;;;;;;3.72;2.33;;;;;;;;;;4985609;28;20058;-65
2022/06/07 06:43:52;;;;;;;2.58;2.17;;;;;;;;;;4977025;28;20027;-65
2022/06/07 06:46:21;;;;;;;4.43;2.00;;;;;;;;;;4981627;28;20054;-66
2022/06/07 06:48:47;;;;;;;3.25;2.10;;;;;;;;;;4985434;28;20042;-68
2022/06/07 06:51:17;;;;;;;3.67;2.25;;;;;;;;;;4983308;28;20034;-67
2022/06/07 06:53:43;;;;;;;6.18;2.45;;;;;;;;;;4981259;28;20373;-67
2022/06/07 06:56:11;;;;;;;2.08;1.90;;;;;;;;;;4979492;28;20030;-65
2022/06/07 06:58:38;;;;;;;5.85;2.00;;;;;;;;;;4980479;28;20050;-65
2022/06/07 07:01:06;;;;;;;5.60;2.20;;;;;;;;;;4984118;28;20395;-65
2022/06/07 07:03:33;;;;;;;3.95;2.10;;;;;;;;;;4979716;28;20034;-65
2022/06/07 07:06:01;;;;;;;1.63;1.52;;;;;;;;;;4984761;28;20550;-65
2022/06/07 07:08:28;;;;;;;1.70;1.60;;;;;;;;;;4983888;28;20064;-67
2022/06/07 07:11:17;;;;;;;7.97;2.67;;;;;;;;;;4986040;28;20034;-68
2022/06/07 07:13:45;;;;;;;11.75;2.05;;;;;;;;;;4988082;28;20391;-65
2022/06/07 07:16:13;;;;;;;15.43;2.42;;;;;;;;;;4982386;28;20027;-65
2022/06/07 07:18:39;;;;;;;5.90;1.95;;;;;;;;;;4988746;28;20022;-65
2022/06/07 07:21:07;;;;;;;6.72;1.40;;;;;;;;;;4987804;28;20032;-65
2022/06/07 07:23:35;;;;;;;2.92;1.30;;;;;;;;;;4986902;28;20026;-65
2022/06/07 07:26:03;;;;;;;7.47;1.55;;;;;;;;;;4986124;28;20073;-65
2022/06/07 07:28:30;;;;;;;10.70;1.50;;;;;;;;;;4983952;28;20026;-65
2022/06/07 07:31:01;;;;;;;1.88;1.35;;;;;;;;;;4985636;28;20034;-64
2022/06/07 07:33:27;;;;;;;7.38;2.03;;;;;;;;;;4987180;28;20032;-65
2022/06/07 07:35:53;;;;;;;2.70;1.60;;;;;;;;;;4986376;28;20026;-66
2022/06/07 07:38:19;;;;;;;2.38;0.93;;;;;;;;;;4984279;28;20061;-64
2022/06/07 07:40:45;;;;;;;5.03;1.40;;;;;;;;;;4983158;28;20468;-65
2022/06/07 07:43:11;;;;;;;1.70;1.27;;;;;;;;;;4984733;28;20073;-65
2022/06/07 07:45:36;;;;;;;1.67;1.20;;;;;;;;;;4982747;28;20412;-64
2022/06/07 07:48:03;;;;;;;3.65;1.10;;;;;;;;;;4983994;28;20085;-65
2022/06/07 07:50:29;;;;;;;1.45;1.10;;;;;;;;;;4986462;28;20038;-65
2022/06/07 07:52:58;;;;;;;1.92;1.10;;;;;;;;;;4983222;28;20093;-64
2022/06/07 07:55:24;;;;;;;3.22;1.08;;;;;;;;;;4982989;28;20027;-65
2022/06/07 07:57:50;;;;;;;1.63;1.20;;;;;;;;;;4988615;28;20034;-64
2022/06/07 08:00:17;;;;;;;3.70;1.35;;;;;;;;;;4988917;28;20036;-64
2022/06/07 08:02:42;;;;;;;2.55;1.10;;;;;;;;;;4983463;28;20033;-64
2022/06/07 08:05:10;;;;;;;4.05;1.20;;;;;;;;;;4985984;28;20027;-64
2022/06/07 08:07:36;;;;;;;4.85;1.17;;;;;;;;;;4986197;28;20475;-65
2022/06/07 08:10:05;;;;;;;8.95;1.27;;;;;;;;;;4984192;28;20042;-63
2022/06/07 08:12:31;;;;;;;1.58;0.93;;;;;;;;;;4987267;28;20026;-64
2022/06/07 08:15:00;;;;;;;1.55;1.23;;;;;;;;;;4984366;28;20375;-64
2022/06/07 08:17:27;;;;;;;1.48;1.05;;;;;;;;;;4984483;28;20149;-64
2022/06/07 08:19:53;;;;;;;3.45;1.20;;;;;;;;;;4984172;28;20448;-65
2022/06/07 08:22:22;;;;;;;2.35;0.95;;;;;;;;;;4966615;28;20026;-64
2022/06/07 08:24:48;;;;;;;2.08;1.05;;;;;;;;;;4985337;28;20034;-65
2022/06/07 08:27:15;;;;;;;1.80;1.33;;;;;;;;;;4986595;28;20034;-64
2022/06/07 08:29:41;;;;;;;1.33;1.00;;;;;;;;;;4982766;28;20038;-64
2022/06/07 08:32:07;;;;;;;1.48;0.88;;;;;;;;;;4982864;28;20443;-64
2022/06/07 08:37:33;;;;;;;3.65;0.90;;;;;;;;;;4982821;28;20034;-64
2022/06/07 08:40:00;;;;;;;3.80;0.95;;;;;;;;;;4985775;28;20058;-64
2022/06/07 08:42:31;;;;;;;4.15;0.88;;;;;;;;;;4988574;28;20067;-64
2022/06/07 08:44:59;;;;;;;3.53;0.98;;;;;;;;;;4984797;28;20502;-64
2022/06/07 08:47:41;;;;;;;1.30;0.70;;;;;;;;;;4983424;28;20121;-63
2022/06/07 08:50:39;;;;;;;;;;;;;;;;;;4983201;28;20139;-63
2022/06/07 08:53:20;;;;;;;0.90;0.73;;;;;;;;;;4945095;29;19963;-64
2022/06/07 08:55:48;;;;;;;;;;;;;;;;;;4944504;28;20064;-63
2022/06/07 08:58:24;;;;;;;12.85;1.00;;;;;;;;;;4946803;29;19930;-63
2022/06/07 09:00:57;;;;;;;1.70;1.00;;;;;;;;;;4945447;28;20038;-63
2022/06/07 09:03:48;;;;;;;2.15;0.60;;;;;;;;;;4944965;28;20058;-64
2022/06/07 09:06:21;;;;;;;2.58;1.05;;;;;;;;;;4944219;29;20128;-64
2022/06/07 09:08:59;;;;;;;0.95;0.80;;;;;;;;;;4942981;29;21494;-64
2022/06/07 09:14:34;;;;;;;2.78;1.00;;;;;;;;;;4946823;29;20070;-64
2022/06/07 09:17:14;;;;;;;9.57;1.10;;;;;;;;;;4946063;28;20053;-63
2022/06/07 09:19:42;;;;;;;1.13;0.80;;;;;;;;;;4944993;29;20095;-64
2022/06/07 09:22:15;;;;;;;2.70;0.88;;;;;;;;;;4944799;28;20047;-64
2022/06/07 09:24:49;;;;;;;5.68;1.23;;;;;;;;;;4945750;28;20126;-62
2022/06/07 09:27:17;;;;;;;1.20;0.77;;;;;;;;;;4946609;29;20046;-63
2022/06/07 09:29:52;;;;;;;5.97;1.00;;;;;;;;;;4979954;28;20101;-63
2022/06/07 09:32:20;;;;;;;1.95;0.80;;;;;;;;;;4983777;28;20413;-63
2022/06/07 09:34:56;;;;;;;0.73;0.73;;;;;;;;;;4985309;28;20030;-63
2022/06/07 09:37:27;;;;;;;1.63;0.93;;;;;;;;;;4982728;28;25011;-64
2022/06/07 09:40:01;;;;;;;1.00;1.00;;;;;;;;;;4981593;28;20387;-63
2022/06/07 09:42:30;;;;;;;1.48;1.02;;;;;;;;;;4983680;28;20034;-63
2022/06/07 09:45:07;;;;;;;3.60;0.90;;;;;;;;;;4980185;28;20034;-64
2022/06/07 09:47:33;;;;;;;1.42;1.00;;;;;;;;;;4985086;28;20467;-64
2022/06/07 09:50:04;;;;;;;3.30;0.88;;;;;;;;;;4984215;28;20037;-63
2022/06/07 09:52:49;;;;;;;2.88;1.00;;;;;;;;;;4981464;28;20033;-63
2022/06/07 09:55:23;;;;;;;0.90;0.85;;;;;;;;;;4982375;28;20113;-64
2022/06/07 09:58:14;;;;;;;3.40;1.23;;;;;;;;;;4982616;28;20038;-65
2022/06/07 10:00:48;;;;;;;1.50;0.95;;;;;;;;;;4984026;28;20046;-64
2022/06/07 10:03:23;;;;;;;1.15;0.95;;;;;;;;;;4981205;28;20024;-62
2022/06/07 10:06:10;;;;;;;3.03;1.10;;;;;;;;;;4983133;28;20356;-63
2022/06/07 10:09:04;;;;;;;4.97;0.80;;;;;;;;;;4980881;28;20036;-64
2022/06/07 10:12:00;;;;;;;1.63;1.00;;;;;;;;;;4982595;28;20082;-63
2022/06/07 10:14:47;;;;;;;6.55;1.33;;;;;;;;;;4983070;28;20033;-64
2022/06/07 10:17:40;;;;;;;4.85;1.00;;;;;;;;;;4982406;28;20042;-64
2022/06/07 10:20:36;;;;;;;1.15;1.02;;;;;;;;;;4982080;28;20542;-64
2022/06/07 10:23:17;;;;;;;3.70;0.98;;;;;;;;;;4983747;28;20042;-63
2022/06/07 10:26:23;;;;;;;1.00;1.00;;;;;;;;;;4981411;28;20050;-64
2022/06/07 10:29:01;;;;;;;8.30;1.60;;;;;;;;;;4982765;28;20064;-64
2022/06/07 10:31:33;;;;;;;2.00;0.90;;;;;;;;;;4978485;28;20380;-65
2022/06/07 10:34:01;;;;;;;;;;;;;;;;;;4977615;28;20102;-65
2022/06/07 10:36:43;;;;;;;3.67;1.13;;;;;;;;;;4982260;28;19937;-65
2022/06/07 10:39:14;;;;;;;;;;;;;;;;;;4981546;28;20105;-64
2022/06/07 10:42:11;;;;;;;1.42;1.00;;;;;;;;;;4984450;28;19918;-65
2022/06/07 10:44:42;;;;;;;3.58;1.40;;;;;;;;;;4988159;28;20071;-64
2022/06/07 10:47:15;;;;;;;1.58;1.10;;;;;;;;;;4977442;28;20022;-65
2022/06/07 10:49:54;;;;;;;2.67;1.15;;;;;;;;;;4984664;28;20398;-65
2022/06/07 10:52:29;;;;;;;4.65;1.20;;;;;;;;;;4983577;28;20041;-64
2022/06/07 10:55:00;;;;;;;0.80;0.80;;;;;;;;;;4985711;28;20037;-64
2022/06/07 10:57:56;;;;;;;3.08;0.93;;;;;;;;;;4989104;28;20082;-65
2022/06/07 11:00:35;;;;;;;1.85;1.52;;;;;;;;;;4987625;28;20254;-65
2022/06/07 11:03:31;;;;;;;3.92;1.30;;;;;;;;;;4988045;28;20541;-64
2022/06/07 11:09:19;;;;;;;3.63;1.20;;;;;;;;;;4925743;29;20063;-66
2022/06/07 11:11:46;;;;;;;3.17;1.30;;;;;;;;;;4927340;29;20035;-66
2022/06/07 11:14:18;;;;;;;1.95;0.95;;;;;;;;;;4926088;29;20131;-66
2022/06/07 11:17:20;;;;;;;7.55;1.60;;;;;;;;;;4927678;29;20067;-66
2022/06/07 11:19:46;;;;;;;1.20;1.20;;;;;;;;;;4928312;29;20551;-66
2022/06/07 11:22:18;;;;;;;1.50;1.30;;;;;;;;;;4924967;29;20036;-67
2022/06/07 11:25:18;;;;;;;3.08;1.38;;;;;;;;;;4929159;29;20595;-66
2022/06/07 11:27:53;;;;;;;2.00;0.93;;;;;;;;;;4926186;29;20519;-66
2022/06/07 11:30:40;;;;;;;1.00;1.00;;;;;;;;;;4926892;29;20071;-66
2022/06/07 11:33:38;;;;;;;3.55;1.52;;;;;;;;;;4926033;29;20024;-67
2022/06/07 11:36:12;;;;;;;1.90;1.20;;;;;;;;;;4925381;29;20051;-66
2022/06/07 11:38:59;;;;;;;7.68;1.33;;;;;;;;;;4923725;29;20063;-66
2022/06/07 11:41:36;;;;;;;1.33;1.30;;;;;;;;;;4926741;29;20551;-67
2022/06/07 11:44:12;;;;;;;1.48;1.30;;;;;;;;;;4980548;28;20041;-66
2022/06/07 11:46:57;;;;;;;2.58;1.25;;;;;;;;;;4983939;28;20042;-67
2022/06/07 11:49:23;;;;;;;2.67;1.35;;;;;;;;;;4983083;28;20034;-66
2022/06/07 11:52:08;;;;;;;2.28;1.42;;;;;;;;;;4986802;28;20057;-66
2022/06/07 11:54:56;;;;;;;2.25;1.33;;;;;;;;;;4987530;28;20030;-65
2022/06/07 11:57:31;;;;;;;3.67;1.20;;;;;;;;;;4984019;28;20042;-66
2022/06/07 12:00:20;;;;;;;1.60;1.08;;;;;;;;;;4983192;28;20117;-67
2022/06/07 12:02:58;;;;;;;2.95;1.30;;;;;;;;;;4986013;28;20132;-66
2022/06/07 12:05:30;;;;;;;2.58;1.33;;;;;;;;;;4985188;28;20096;-66
2022/06/07 12:08:21;;;;;;;3.30;1.35;;;;;;;;;;4987082;28;20555;-66
2022/06/07 12:11:22;;;;;;;2.13;1.30;;;;;;;;;;4969784;28;20488;-65
2022/06/07 12:13:56;;;;;;;1.30;1.20;;;;;;;;;;4986986;28;20072;-67
2022/06/07 12:16:37;;;;;;;1.35;1.10;;;;;;;;;;4983543;28;20038;-66
2022/06/07 12:19:16;;;;;;;2.97;1.20;;;;;;;;;;4983213;28;20034;-66
2022/06/07 12:21:51;;;;;;;1.88;1.20;;;;;;;;;;4985085;28;20031;-67
2022/06/07 12:24:17;;;;;;;5.35;1.30;;;;;;;;;;4982415;28;20103;-66
2022/06/07 12:26:46;;;;;;;2.20;1.55;;;;;;;;;;4986083;28;20895;-67
2022/06/07 12:29:24;;;;;;;1.40;1.23;;;;;;;;;;4986679;28;20093;-66
2022/06/07 12:31:59;;;;;;;1.77;1.30;;;;;;;;;;4980145;28;20026;-67
2022/06/07 12:34:36;;;;;;;2.47;1.38;;;;;;;;;;4982275;28;20619;-67
2022/06/07 12:37:08;;;;;;;1.52;1.27;;;;;;;;;;4983189;28;20110;-66
2022/06/07 12:39:52;;;;;;;3.17;1.40;;;;;;;;;;4984615;28;20129;-67
2022/06/07 12:42:20;;;;;;;2.90;1.40;;;;;;;;;;4983079;28;20047;-66
2022/06/07 12:44:58;;;;;;;1.55;1.25;;;;;;;;;;4983246;28;20434;-67
2022/06/07 12:47:26;;;;;;;2.42;1.25;;;;;;;;;;4984404;28;20057;-67
2022/06/07 12:49:52;;;;;;;1.23;1.20;;;;;;;;;;4982169;28;20038;-65
2022/06/07 12:52:26;;;;;;;6.05;1.35;;;;;;;;;;4986733;28;20022;-66
2022/06/07 12:54:54;;;;;;;1.13;1.13;;;;;;;;;;4985786;28;20042;-67
2022/06/07 12:57:29;;;;;;;1.92;1.30;;;;;;;;;;4984023;28;20562;-67
2022/06/07 13:00:00;;;;;;;1.48;1.00;;;;;;;;;;4981769;28;20035;-67
2022/06/07 13:02:37;;;;;;;4.05;1.30;;;;;;;;;;4983316;28;20096;-67
2022/06/07 13:05:10;;;;;;;1.00;0.90;;;;;;;;;;4981922;28;20042;-66
2022/06/07 13:08:12;;;;;;;2.53;1.00;;;;;;;;;;4982967;28;20029;-68
2022/06/07 13:10:39;;;;;;;7.60;1.38;;;;;;;;;;4978425;28;20036;-66
2022/06/07 13:13:13;;;;;;;1.67;1.33;;;;;;;;;;4981440;28;20037;-67
2022/06/07 13:16:00;;;;;;;1.88;1.10;;;;;;;;;;4987308;28;20101;-65
2022/06/07 13:18:28;;;;;;;2.47;1.45;;;;;;;;;;4985454;28;20062;-67
2022/06/07 13:21:15;;;;;;;1.85;1.05;;;;;;;;;;4982764;28;20038;-67
2022/06/07 13:23:43;;;;;;;2.75;0.98;;;;;;;;;;4982938;28;20030;-66
2022/06/07 13:26:27;;;;;;;2.38;1.10;;;;;;;;;;4982056;28;20121;-67
2022/06/07 13:29:27;;;;;;;1.40;1.30;;;;;;;;;;4980106;28;20104;-67
2022/06/07 13:32:04;;;;;;;7.03;1.17;;;;;;;;;;4983829;28;20039;-67
2022/06/07 13:34:33;;;;;;;1.63;1.27;;;;;;;;;;4982559;28;20042;-66
2022/06/07 13:37:02;;;;;;;2.22;1.10;;;;;;;;;;4982419;28;20057;-64
2022/06/07 13:39:29;;;;;;;1.00;1.00;;;;;;;;;;4985778;28;20038;-66
2022/06/07 13:42:08;;;;;;;3.13;1.17;;;;;;;;;;4985633;28;20033;-67
2022/06/07 13:44:53;;;;;;;2.08;1.40;;;;;;;;;;4979781;28;20041;-66
2022/06/07 13:47:34;;;;;;;3.60;1.08;;;;;;;;;;4983278;28;20027;-67
2022/06/07 13:56:04;;;;;;;0.90;0.90;;;;;;;;;;4984289;28;20041;-67
2022/06/07 13:58:42;;;;;;;4.60;1.30;;;;;;;;;;4979586;28;20062;-67
2022/06/07 14:01:22;;;;;;;5.55;1.15;;;;;;;;;;4983046;28;20831;-67
2022/06/07 14:04:08;;;;;;;3.33;1.00;;;;;;;;;;4985588;28;20026;-66
2022/06/07 14:06:36;;;;;;;0.93;0.93;;;;;;;;;;4985090;28;20110;-67
2022/06/07 14:09:20;;;;;;;1.90;1.15;;;;;;;;;;4984886;28;20053;-67
2022/06/07 14:11:48;;;;;;;2.55;1.10;;;;;;;;;;4983320;28;23328;-66
2022/06/07 14:14:14;;;;;;;1.25;1.15;;;;;;;;;;4981360;28;20022;-66
2022/06/07 14:16:43;;;;;;;4.05;1.17;;;;;;;;;;4984655;28;20038;-67
2022/06/07 14:19:15;;;;;;;1.23;0.82;;;;;;;;;;4985342;28;20045;-67
2022/06/07 14:21:41;;;;;;;1.17;1.08;;;;;;;;;;4983715;28;20084;-66
2022/06/07 14:24:16;;;;;;;1.10;1.00;;;;;;;;;;4988323;28;20062;-67
2022/06/07 14:26:43;;;;;;;2.72;1.02;;;;;;;;;;4984878;28;20089;-67
2022/06/07 14:29:09;;;;;;;3.25;1.00;;;;;;;;;;4987997;28;20025;-67
2022/06/07 14:31:36;;;;;;;0.93;0.93;;;;;;;;;;4988339;28;20024;-67
2022/06/07 14:34:02;;;;;;;0.98;0.90;;;;;;;;;;4986686;28;20117;-66
2022/06/07 14:36:28;;;;;;;1.67;1.00;;;;;;;;;;4985737;28;20339;-66
2022/06/07 14:38:54;;;;;;;1.48;0.80;;;;;;;;;;4987273;28;20030;-66
2022/06/07 14:41:20;;;;;;;4.65;1.10;;;;;;;;;;4985924;28;20045;-66
2022/06/07 14:43:47;;;;;;;0.75;0.75;;;;;;;;;;4988148;28;20061;-66
2022/06/07 14:46:15;;;;;;;1.30;1.20;;;;;;;;;;4987616;28;20031;-66
2022/06/07 14:48:45;;;;;;;1.40;1.30;;;;;;;;;;4983916;28;20038;-67
2022/06/07 14:51:28;;;;;;;3.00;1.20;;;;;;;;;;4984092;28;20513;-66
2022/06/07 14:53:57;;;;;;;6.40;1.20;;;;;;;;;;4980959;28;20188;-67
2022/06/07 14:56:27;;;;;;;3.08;1.30;;;;;;;;;;4984954;28;20062;-68
2022/06/07 14:58:54;;;;;;;2.40;1.40;;;;;;;;;;4981069;28;20037;-66
2022/06/07 15:01:35;;;;;;;1.17;1.10;;;;;;;;;;4987068;28;20610;-67
2022/06/07 15:04:03;;;;;;;5.00;1.25;;;;;;;;;;4982018;28;20049;-66
2022/06/07 15:06:31;;;;;;;1.20;1.05;;;;;;;;;;4985313;28;20038;-67
2022/06/07 15:08:57;;;;;;;2.72;1.50;;;;;;;;;;4987322;28;20121;-67
2022/06/07 15:11:43;;;;;;;2.60;1.17;;;;;;;;;;4986140;28;20180;-67
2022/06/07 15:14:10;;;;;;;1.20;1.10;;;;;;;;;;4984430;28;20045;-67
2022/06/07 15:16:37;;;;;;;5.90;1.15;;;;;;;;;;4984914;28;20022;-67
2022/06/07 15:19:06;;;;;;;2.55;0.90;;;;;;;;;;4983606;28;20069;-66
2022/06/07 15:21:33;;;;;;;3.40;1.00;;;;;;;;;;4987639;28;20387;-68
2022/06/07 15:23:59;;;;;;;2.42;1.00;;;;;;;;;;4985139;28;20038;-66
2022/06/07 15:26:27;;;;;;;2.85;1.02;;;;;;;;;;4984859;28;20054;-67
2022/06/07 15:28:53;;;;;;;1.70;1.00;;;;;;;;;;4985198;28;20026;-67
2022/06/07 15:31:23;;;;;;;5.07;1.05;;;;;;;;;;4985235;28;20132;-66